D/T METAR WX W/DIR W/SPE G/SPE TEMP DEWP
9/12/19 12:00 EIDW 091200Z 29012KT 9999 FEW014 07/03 Q1019 NOSIG WNW (290°) 13.8mph 7°C 3°C
9/12/19 11:30 EIDW 091130Z 29015KT 9999 FEW014 07/03 Q1018 NOSIG WNW (290°) 17.3mph 7°C 3°C
9/12/19 11:00 EIDW 091100Z 28014KT 9999 FEW014 06/03 Q1018 NOSIG W (280°) 16.1mph 6°C 3°C
9/12/19 10:30 EIDW 091030Z 27012KT 9999 FEW014 06/03 Q1018 NOSIG W (270°) 13.8mph 6°C 3°C
9/12/19 10:00 EIDW 091000Z 27011KT 9999 FEW014 05/03 Q1017 NOSIG W (270°) 12.7mph 5°C 3°C
9/12/19 09:30 EIDW 090930Z 26010KT 9999 FEW014 SCT250 05/03 Q1016 NOSIG W (260°) 11.5mph 5°C 3°C
9/12/19 09:00 EIDW 090900Z 27009KT 9999 FEW014 SCT250 05/02 Q1016 NOSIG W (270°) 10.4mph 5°C 2°C
9/12/19 08:30 EIDW 090830Z 27010KT 9999 FEW014 SCT250 05/02 Q1015 NOSIG W (270°) 11.5mph 5°C 2°C
9/12/19 08:00 EIDW 090800Z 28010KT 9999 FEW014 SCT250 04/02 Q1014 NOSIG W (280°) 11.5mph 4°C 2°C
9/12/19 07:30 EIDW 090730Z 28012KT 9999 FEW014 BKN250 05/03 Q1013 NOSIG W (280°) 13.8mph 5°C 3°C
9/12/19 07:00 EIDW 090700Z 29016KT 9999 FEW017 BKN250 06/03 Q1011 NOSIG WNW (290°) 18.4mph 6°C 3°C
9/12/19 06:30 EIDW 090630Z 29015KT 9999 FEW017 BKN250 06/03 Q1010 NOSIG WNW (290°) 17.3mph 6°C 3°C
9/12/19 06:00 EIDW 090600Z 30018KT 9999 FEW017 BKN250 06/03 Q1009 NOSIG WNW (300°) 20.7mph 6°C 3°C
9/12/19 05:30 EIDW 090530Z 30018KT 9999 FEW017 SCT027 BKN250 06/03 Q1008 NOSIG WNW (300°) 20.7mph 6°C 3°C
9/12/19 05:00 EIDW 090500Z 30015KT 280V340 9999 FEW017 SCT026 BKN033 06/03 Q1007 NOSIG WNW (300°) 17.3mph 6°C 3°C
9/12/19 04:30 EIDW 090430Z 30017KT 9999 FEW017 BKN026 BKN032 07/03 Q1006 NOSIG WNW (300°) 19.6mph 7°C 3°C
9/12/19 04:00 EIDW 090400Z 30018KT 9999 FEW017 SCT027 BKN031 07/03 Q1004 NOSIG WNW (300°) 20.7mph 7°C 3°C
9/12/19 03:30 EIDW 090330Z 31019G29KT 9999 FEW017 SCT028 BKN032 07/04 Q1003 NOSIG NW (310°) 21.9mph 33.4mph 7°C 4°C
9/12/19 03:00 EIDW 090300Z 31021KT 9999 FEW016 SCT025 BKN030 08/04 Q1001 NOSIG NW (310°) 24.2mph 8°C 4°C
9/12/19 02:30 EIDW 090230Z 31023G35KT 9999 FEW016 SCT023 BKN030 08/04 Q1000 NOSIG NW (310°) 26.5mph 40.3mph 8°C 4°C
9/12/19 02:00 EIDW 090200Z 31025G36KT 9999 -SHRA FEW016 SCT027 BKN035 08/04 Q0998 NOSIG -SHRA NW (310°) 28.8mph 41.4mph 8°C 4°C
9/12/19 01:30 EIDW 090130Z 31025G35KT 9999 FEW016 SCT029 BKN034 08/04 Q0996 NOSIG NW (310°) 28.8mph 40.3mph 8°C 4°C
9/12/19 01:00 EIDW 090100Z 31026G38KT 9999 FEW016 SCT026 BKN033 08/04 Q0994 NOSIG NW (310°) 29.9mph 43.7mph 8°C 4°C
9/12/19 00:30 EIDW 090030Z 30029G41KT 9999 -SHRA FEW012 FEW018CB SCT024 08/05 Q0992 NOSIG -SHRA WNW (300°) 33.4mph 47.2mph 8°C 5°C
9/12/19 00:00 EIDW 090000Z 29033G46KT 9999 FEW012 FEW018CB SCT021 08/06 Q0990 NOSIG WNW (290°) 38.0mph 52.9mph 8°C 6°C
8/12/19 23:30 EIDW 082330Z 27031G41KT 9999 -SHRA FEW012 FEW018CB BKN032 07/06 Q0988 NOSIG -SHRA W (270°) 35.7mph 47.2mph 7°C 6°C
8/12/19 23:00 EIDW 082300Z 27025G39KT 5000 -SHRA FEW012 SCT018CB BKN022 07/05 Q0987 NOSIG -SHRA W (270°) 28.8mph 44.9mph 7°C 5°C
8/12/19 22:30 EIDW 082230Z 26018G31KT 220V280 9999 -SHRA FEW012 SCT018CB BKN028 06/04 Q0987 NOSIG -SHRA W (260°) 20.7mph 35.7mph 6°C 4°C
8/12/19 22:00 EIDW 082200Z 26016G26KT 230V290 9999 -SHRA FEW018CB SCT024 BKN037 06/04 Q0987 NOSIG -SHRA W (260°) 18.4mph 29.9mph 6°C 4°C
8/12/19 21:30 EIDW 082130Z 26019G30KT 9999 -SHRA FEW018CB SCT028 BKN035 06/04 Q0987 NOSIG -SHRA W (260°) 21.9mph 34.5mph 6°C 4°C
8/12/19 21:00 EIDW 082100Z 26014G29KT 210V290 9999 -SHRA FEW010 FEW018CB BKN030 06/04 Q0987 NOSIG -SHRA W (260°) 16.1mph 33.4mph 6°C 4°C
8/12/19 20:30 EIDW 082030Z 25014KT 9999 FEW010 BKN018 BKN030 06/04 Q0987 NOSIG WSW (250°) 16.1mph 6°C 4°C
8/12/19 20:00 EIDW 082000Z 25014KT 200V280 9999 -RADZ SCT010 BKN015 BKN030 06/04 Q0987 NOSIG -RA -DZ WSW (250°) 16.1mph 6°C 4°C
8/12/19 19:30 EIDW 081930Z 24012KT 200V280 9999 -RADZ FEW012 FEW018CB BKN040 06/04 Q0986 NOSIG -RA -DZ WSW (240°) 13.8mph 6°C 4°C
8/12/19 19:00 EIDW 081900Z 23013G23KT 200V280 9999 -SHRA FEW014 SCT018CB BKN040 06/04 Q0986 NOSIG -SHRA SW (230°) 15.0mph 26.5mph 6°C 4°C
8/12/19 18:30 EIDW 081830Z 23016G30KT 200V270 9999 -SHRA FEW014 SCT018CB BKN040 05/04 Q0986 NOSIG -SHRA SW (230°) 18.4mph 34.5mph 5°C 4°C
8/12/19 18:00 EIDW 081800Z 22018G37KT 190V260 9999 -SHRA FEW014 FEW018CB BKN040 06/03 Q0986 NOSIG -SHRA SW (220°) 20.7mph 42.6mph 6°C 3°C
8/12/19 17:30 EIDW 081730Z 23016G27KT 9999 FEW014 FEW018CB BKN040 06/03 Q0986 WS RWY28 NOSIG SW (230°) 18.4mph 31.1mph 6°C 3°C
8/12/19 17:00 EIDW 081700Z 23016G30KT 190V280 9999 -SHRA FEW014 FEW018CB BKN045 06/03 Q0987 WS RWY28 NOSIG -SHRA SW (230°) 18.4mph 34.5mph 6°C 3°C
8/12/19 16:30 EIDW 081630Z 23015G27KT 200V290 9999 FEW014 FEW018CB BKN045 05/02 Q0988 WS RWY28 NOSIG SW (230°) 17.3mph 31.1mph 5°C 2°C
8/12/19 16:00 EIDW 081600Z 23016G29KT 190V270 9999 -SHRA FEW012 FEW018CB BKN045 06/03 Q0988 WS RWY28 NOSIG -SHRA SW (230°) 18.4mph 33.4mph 6°C 3°C
8/12/19 15:30 EIDW 081530Z 24017G30KT 200V270 9999 VCSH FEW012 FEW018CB SCT040 05/03 Q0989 NOSIG VCSH WSW (240°) 19.6mph 34.5mph 5°C 3°C
8/12/19 15:00 EIDW 081500Z 23016G28KT 190V260 9999 -SHRA FEW012 SCT018CB SCT040 05/03 Q0989 NOSIG -SHRA SW (230°) 18.4mph 32.2mph 5°C 3°C
8/12/19 14:30 EIDW 081430Z 23015G30KT 180V260 9999 FEW012 FEW020CB SCT040 06/02 Q0990 NOSIG SW (230°) 17.3mph 34.5mph 6°C 2°C
8/12/19 14:00 EIDW 081400Z 24014G26KT 200V270 9999 FEW012 FEW020CB SCT040 06/03 Q0990 NOSIG WSW (240°) 16.1mph 29.9mph 6°C 3°C
8/12/19 13:30 EIDW 081330Z 23016G28KT 190V270 9999 VCSH FEW012 SCT020CB 06/03 Q0991 NOSIG VCSH SW (230°) 18.4mph 32.2mph 6°C 3°C
8/12/19 13:00 EIDW 081300Z 23015G26KT 200V280 9999 FEW008 FEW020CB SCT040 06/03 Q0991 WS RWY28 NOSIG SW (230°) 17.3mph 29.9mph 6°C 3°C
8/12/19 12:30 EIDW 081230Z 23013KT 190V280 9999 FEW008 FEW020CB SCT040 06/04 Q0992 WS RWY28 NOSIG SW (230°) 15.0mph 6°C 4°C